Granger, Wyoming
Current Conditions -  °F | °C
As of 8:15 PM on Wednesday 22 Oct 2014 (Local Time) from KFBR Reporting Station
Clear Clear  
Wind Chill: 41°   Ceiling: Unl
Heat Index: 44°   Visibility: NA
Dew Point: 18°   Wind: 5mph
Humidity: 36%   Direction: 260°W
Pressure: 30.26"   Gusts: NA
Location:  41.59°N, 109.97°W
Report Text: KFBR 230215Z AUTO 26004KT CLR 06/M08 A3026 RMK AO2 T00641078 PWINO
Loading
Personal Weather Stations






























Interactive Weather Map
Tropical Storm Tracking
New forecast layout! Learn more

10-Day Weather Forecast

Advertisements
Track Severe Weather on mobile